Terminal Aerodrome Forecast
Issued by NWS

Home | Current Version | Previous Version | Text Only | Print | Product List | Glossary On
Versions: 1 2 3 4 5 6 7 8 9 10 11 12 13 14 15 16 17
000
FTUS46 KMTR 220520
TAFSNS
TAF
KSNS 220520Z 2206/2306 33005KT P6SM FEW008
      TEMPO 2208/2212 BKN008
     FM221200 12005KT P6SM SCT008
     FM221900 29012KT P6SM FEW250
     FM230400 29008KT P6SM SCT250
     FM230500 VRB03KT P6SM SCT250=

USA.gov is the U.S. government's official web portal to all federal, state and local government web resources and services.